Latest Coastal Weather Observations for Browse Island

IDD60701

Issued at 6:41 am CST Friday 20 September 2019 (issued every 10 minutes, with the page automatically refreshed every 10 minutes)

About coastal observations | Map of coastal stations | Coastal observations for NT | Marine services | Other Formats
Station Details ID: 200784 Name: BROWSE ISLAND Lat: -14.11 Lon: 123.55 Height: 3.7 m
Data from the previous 72 hours. | See also: Recent months at Browse Island
Date/Time
CST
Wind Sea
Height
m
Swell Vis
km
Cloud Weather Temp
°C
Press
hPa
Rain since
9am
mm
Dir  Spd
kts
Gust
kts
Height
m
Period
s
Dir
20/06:30am SW 8 9 - - - - - - - 25.4 1014.2 -
20/06:00am WSW 8 9 - - - - - - - 25.4 1013.8 -
20/05:30am WSW 6 8 - - - - - - - 25.6 1013.8 -
20/05:00am WSW 7 8 - - - - - - - 25.6 1013.6 -
20/04:30am W 7 8 - - - - - - - 25.8 1013.5 -
20/04:00am W 7 9 - - - - - - - 25.7 1013.5 -
20/03:30am W 7 8 - - - - - - - 26.0 1013.5 -
20/03:00am W 6 8 - - - - - - - 25.9 1013.6 -
20/02:30am WNW 6 8 - - - - - - - 25.8 1013.8 -
20/02:00am WNW 7 9 - - - - - - - 26.0 1013.8 -
20/01:30am WNW 8 9 - - - - - - - 26.1 1013.9 -
20/01:00am WNW 10 11 - - - - - - - 26.1 1014.2 -
20/12:30am W 9 10 - - - - - - - 26.1 1014.3 -
20/12:00am W 9 11 - - - - - - - 26.2 1014.5 -
 
Date/Time
CST
Wind Sea
Height
m
Swell Vis
km
Cloud Weather Temp
°C
Press
hPa
Rain since
9am
mm
Dir  Spd
kts
Gust
kts
Height
m
Period
s
Dir
19/11:30pm WNW 9 11 - - - - - - - 26.2 1014.8 -
19/11:00pm WNW 10 12 - - - - - - - 26.3 1014.8 -
19/10:30pm WNW 11 13 - - - - - - - 26.3 1014.6 -
19/10:00pm WNW 11 13 - - - - - - - 26.0 1014.5 -
19/09:30pm WNW 9 11 - - - - - - - 26.4 1014.5 -
19/09:00pm WNW 8 9 - - - - - - - 26.3 1014.5 -
19/08:30pm NW 6 8 - - - - - - - 26.4 1014.4 -
19/08:00pm WNW 6 8 - - - - - - - 26.4 1014.2 -
19/07:30pm NW 7 9 - - - - - - - 26.4 1013.9 -
19/07:00pm NNW 6 8 - - - - - - - 26.5 1013.7 -
19/06:30pm NNW 4 6 - - - - - - - 26.7 1013.5 -
19/06:00pm NNW 4 6 - - - - - - - 27.0 1013.4 -
19/05:30pm N 5 8 - - - - - - - 27.4 1013.3 -
19/05:00pm N 5 6 - - - - - - - 28.2 1013.4 -
19/04:30pm N 3 6 - - - - - - - 28.0 1013.4 -
19/04:00pm WNW 1 4 - - - - - - - 27.2 1013.3 -
19/03:30pm CALM 0 4 - - - - - - - 27.4 1013.5 -
19/03:00pm CALM 0 0 - - - - - - - 27.4 1013.9 -
19/02:30pm CALM 0 0 - - - - - - - 27.0 1014.0 -
19/02:00pm CALM 0 0 - - - - - - - 26.8 1014.2 -
19/01:30pm CALM 0 0 - - - - - - - 26.5 1014.6 -
19/01:00pm W 1 4 - - - - - - - 27.1 1015.0 -
19/12:30pm SW 6 7 - - - - - - - 26.1 1015.1 -
19/12:00pm SW 6 8 - - - - - - - 26.5 1015.5 -
19/11:30am SW 7 9 - - - - - - - 25.8 1015.7 -
19/11:00am SW 6 7 - - - - - - - 26.0 1016.0 -
19/10:30am SW 5 7 - - - - - - - 26.1 1016.1 -
19/10:00am SW 6 7 - - - - - - - 25.9 1016.1 -
19/09:30am CALM 0 0 - - - - - - - 25.9 1016.0 -
19/09:00am CALM 0 0 - - - - - - - 25.9 1015.8 -
19/08:30am SW 4 5 - - - - - - - 25.5 1015.5 -
19/08:00am SW 4 5 - - - - - - - 25.5 1015.2 -
19/07:30am WSW 6 7 - - - - - - - 25.6 1015.0 -
19/07:00am WSW 7 8 - - - - - - - 25.6 1014.6 -
19/06:30am WSW 7 11 - - - - - - - 25.6 1014.1 -
19/06:00am WSW 8 10 - - - - - - - 25.5 1014.2 -
19/05:30am SW 8 9 - - - - - - - 25.3 1014.1 -
19/05:00am SW 7 8 - - - - - - - 25.6 1014.3 -
19/04:30am SW 6 7 - - - - - - - 25.7 1014.3 -
19/04:00am WSW 7 8 - - - - - - - 25.7 1014.3 -
19/03:30am SW 5 6 - - - - - - - 25.8 1014.6 -
19/03:00am WSW 4 5 - - - - - - - 25.9 1014.9 -
19/02:30am W 4 5 - - - - - - - 26.0 1015.2 -
19/02:00am NW 4 6 - - - - - - - 26.0 1015.3 -
19/01:30am NW 5 5 - - - - - - - 26.1 1015.5 -
19/01:00am NNW 5 7 - - - - - - - 26.1 1015.7 -
19/12:30am NNW 6 7 - - - - - - - 26.1 1015.9 -
19/12:00am NNW 7 8 - - - - - - - 26.1 1016.1 -
 
Date/Time
CST
Wind Sea
Height
m
Swell Vis
km
Cloud Weather Temp
°C
Press
hPa
Rain since
9am
mm
Dir  Spd
kts
Gust
kts
Height
m
Period
s
Dir
18/11:30pm NNW 7 8 - - - - - - - 26.1 1016.1 -
18/11:00pm NNW 8 9 - - - - - - - 26.1 1016.0 -
18/10:30pm NNW 8 9 - - - - - - - 26.0 1016.0 -
18/10:00pm NNW 7 9 - - - - - - - 26.0 1016.1 -
18/09:30pm NNW 8 10 - - - - - - - 26.1 1015.9 -
18/09:00pm NNW 9 11 - - - - - - - 26.2 1015.4 -
18/08:30pm N 8 9 - - - - - - - 26.3 1015.3 -
18/08:00pm N 9 10 - - - - - - - 26.4 1014.9 -
18/07:30pm NNW 10 11 - - - - - - - 26.5 1014.7 -
18/07:00pm N 9 10 - - - - - - - 26.6 1014.5 -
18/06:30pm N 8 9 - - - - - - - 27.0 1014.7 -
18/06:00pm N 7 9 - - - - - - - 27.2 1014.4 -
18/05:30pm N 7 8 - - - - - - - 27.5 1014.5 -
18/05:00pm N 7 9 - - - - - - - 27.4 1014.5 -
18/04:30pm NW 6 7 - - - - - - - 28.1 1014.3 -
18/04:00pm NNW 5 6 - - - - - - - 27.6 1014.4 -
18/03:30pm NW 5 6 - - - - - - - 27.4 1014.6 -
18/03:00pm WNW 5 6 - - - - - - - 27.5 1014.9 -
18/02:30pm WNW 4 5 - - - - - - - 27.9 1015.4 -
18/02:00pm W 5 6 - - - - - - - 27.9 1015.6 -
18/01:30pm W 4 5 - - - - - - - 27.0 1015.8 -
18/01:00pm W 4 5 - - - - - - - 26.8 1016.1 -
18/12:30pm WNW 5 6 - - - - - - - 27.0 1016.4 -
18/12:00pm WNW 4 5 - - - - - - - 27.0 1017.0 -
18/11:30am WNW 4 5 - - - - - - - 26.8 1017.4 -
18/11:00am WNW 3 5 - - - - - - - 26.9 1017.7 -
18/10:30am CALM 0 0 - - - - - - - 26.6 1017.7 -
18/10:00am N 1 4 - - - - - - - 26.9 1017.6 -
18/09:30am NNW 3 5 - - - - - - - 26.0 1017.4 -
18/09:00am CALM 0 0 - - - - - - - 26.2 1017.4 -
18/08:30am CALM 0 0 - - - - - - - 25.7 1017.3 -
18/08:00am CALM 0 0 - - - - - - - 25.4 1016.9 -
18/07:30am CALM 0 0 - - - - - - - 25.0 1016.6 -
18/07:00am CALM 0 0 - - - - - - - 25.2 1016.2 -
18/06:30am CALM 0 4 - - - - - - - 25.3 1015.8 -
18/06:00am NNE 3 5 - - - - - - - 25.4 1015.6 -
18/05:30am N 6 7 - - - - - - - 25.4 1015.2 -
18/05:00am NNE 6 7 - - - - - - - 25.7 1015.0 -
18/04:30am N 7 9 - - - - - - - 25.4 1015.0 -
18/04:00am NNE 7 9 - - - - - - - 25.6 1014.9 -
18/03:30am N 7 8 - - - - - - - 25.6 1014.9 -
18/03:00am NNE 8 9 - - - - - - - 25.7 1015.2 -
18/02:30am NNE 7 8 - - - - - - - 25.8 1015.4 -
18/02:00am N 5 6 - - - - - - - 25.8 1015.4 -
18/01:30am N 6 7 - - - - - - - 25.8 1015.6 -
18/01:00am N 4 5 - - - - - - - 26.0 1015.8 -
18/12:30am W 3 4 - - - - - - - 25.9 1015.8 -
18/12:00am WSW 5 5 - - - - - - - 26.0 1015.9 -
 
Date/Time
CST
Wind Sea
Height
m
Swell Vis
km
Cloud Weather Temp
°C
Press
hPa
Rain since
9am
mm
Dir  Spd
kts
Gust
kts
Height
m
Period
s
Dir
17/11:30pm WSW 5 7 - - - - - - - 26.1 1016.0 -
17/11:00pm W 4 5 - - - - - - - 25.9 1016.0 -
17/10:30pm W 4 5 - - - - - - - 26.0 1016.0 -
17/10:00pm W 4 4 - - - - - - - 25.9 1015.9 -
17/09:30pm W 4 4 - - - - - - - 26.0 1015.5 -
17/09:00pm W 4 5 - - - - - - - 26.1 1015.3 -
17/08:30pm WSW 4 4 - - - - - - - 26.2 1015.1 -
17/08:00pm WSW 4 5 - - - - - - - 26.2 1014.9 -
17/07:30pm SW 4 5 - - - - - - - 26.2 1014.7 -
17/07:00pm WSW 5 6 - - - - - - - 26.4 1014.2 -
17/06:30pm S 5 7 - - - - - - - 26.4 1014.2 -
17/06:00pm SSE 4 5 - - - - - - - 26.6 1014.0 -
17/05:30pm SSE 4 5 - - - - - - - 27.0 1013.8 -
17/05:00pm SSE 3 5 - - - - - - - 26.9 1013.8 -
17/04:30pm CALM 0 0 - - - - - - - 28.2 1013.8 -
17/04:00pm CALM 0 0 - - - - - - - 27.6 1013.9 -
17/03:30pm CALM 0 5 - - - - - - - 27.4 1014.3 -
17/03:00pm CALM 0 0 - - - - - - - 27.7 1014.5 -
17/02:30pm CALM 0 0 - - - - - - - 27.6 1015.0 -
17/02:00pm S 4 5 - - - - - - - 26.4 1015.1 -
17/01:30pm S 7 8 - - - - - - - 26.2 1015.4 -
17/01:00pm S 5 7 - - - - - - - 26.7 1015.8 -
17/12:30pm SSE 5 7 - - - - - - - 26.5 1016.2 -
17/12:00pm SSE 5 7 - - - - - - - 26.5 1016.5 -
17/11:30am SSE 4 6 - - - - - - - 26.4 1016.9 -
17/11:00am SE 3 5 - - - - - - - 26.6 1017.1 -
17/10:30am CALM 0 0 - - - - - - - 26.4 1017.0 -
17/10:00am CALM 0 0 - - - - - - - 26.2 1016.8 -
17/09:30am CALM 0 0 - - - - - - - 26.0 1016.7 -
17/09:00am CALM 0 0 - - - - - - - 25.7 1016.5 -
17/08:30am CALM 0 0 - - - - - - - 25.4 1016.1 -

Other formats

Comma delimited format used in spreadsheet applications
http://www.bom.gov.au/fwo/IDD60701/IDD60701.94103.axf

JavaScript Object Notation format (JSON) in row-major order
http://www.bom.gov.au/fwo/IDD60701/IDD60701.94103.json

Data quality

Most of these data are generated automatically and are frequently updated. Quality checks on data are not normally performed. It is possible for incorrect values to appear. Refer to information at About Latest Weather Observations and please check the disclaimer before using these data.